Mareta — 9HA3013 — position and weather

sailwx.info

Track history (hours):
 
Tides and Currents Weather Stations Pressure Air Temp Water Temp Dewpoint Dewpoint Depression Visibility Wind Speed Wind Dir Waves Ship Positions

Mareta

Last reported at 2018-Jun-23 15:25 UTC. Time now 2018-Jun-23 15:29 UTC.
Position N 49°22' W 004°37'.

Length 249 m; draft 14.1 m.

Type: Tanker. MMSI: 229038000.

Date/timePositionNaut miles runAvg speedWind from/ knotsBaromVisibWave heightAir tempDewpointWater temp
2018-Jun-23 15:25N 49°22' W 004°37'2311.3
2018-Jun-23 13:24N 49°33' W 004°07'711.3
2018-Jun-23 12:49N 49°37' W 003°58'311.2
2018-Jun-23 12:30N 49°38' W 003°54'611.2
2018-Jun-23 12:00N 49°41' W 003°46'13 9.9
2018-Jun-23 10:44N 49°48' W 003°29'312.7
2018-Jun-23 10:30N 49°49' W 003°25'612.8
2018-Jun-23 10:00N 49°52' W 003°17'713.0
2018-Jun-23 09:30N 49°55' W 003°08'613.1
2018-Jun-23 09:01N 49°58' W 002°59'612.8
2018-Jun-23 08:31N 50°01' W 002°50'612.8
2018-Jun-23 08:00N 50°03' W 002°40'612.5
2018-Jun-23 07:30N 50°05' W 002°31'612.0
2018-Jun-23 07:01N 50°06' W 002°22'711.4
2018-Jun-23 06:23N 50°08' W 002°11'410.8
2018-Jun-23 06:01N 50°09' W 002°05'510.3
2018-Jun-23 05:30N 50°10' W 001°57'5 9.8
2018-Jun-23 05:01N 50°12' W 001°50'5 9.5
2018-Jun-23 04:31N 50°13' W 001°43'5 9.3
2018-Jun-23 04:00N 50°14' W 001°36'5 9.3
2018-Jun-23 03:31N 50°15' W 001°29'5 9.5
2018-Jun-23 03:01N 50°16' W 001°22'510.0
2018-Jun-23 02:30N 50°18' W 001°14'510.6
2018-Jun-23 02:00N 50°19' W 001°06'611.5
2018-Jun-23 01:30N 50°21' W 000°57'612.5
2018-Jun-23 01:01N 50°22' W 000°48'612.7
2018-Jun-23 00:31N 50°24' W 000°38'713.0
2018-Jun-23 00:00N 50°26' W 000°28'713.2
2018-Jun-22 23:31N 50°27' W 000°18'713.3
2018-Jun-22 23:00N 50°29' W 000°08'713.3
2018-Jun-22 22:30N 50°31' E 000°02'713.3
2018-Jun-22 22:00N 50°33' E 000°12'713.2
2018-Jun-22 21:31N 50°34' E 000°22'612.9
2018-Jun-22 21:01N 50°36' E 000°32'611.1
2018-Jun-22 20:30N 50°38' E 000°40'611.4
2018-Jun-22 20:01N 50°41' E 000°47'612.1
2018-Jun-22 19:30N 50°45' E 000°55'611.9
2018-Jun-22 19:00N 50°48' E 001°03'611.7
2018-Jun-22 18:31N 50°51' E 001°10'611.9
2018-Jun-22 18:00N 50°55' E 001°18'612.4
2018-Jun-22 17:30N 50°60' E 001°24'713.7
2018-Jun-22 17:01N 51°05' E 001°32'714.3
2018-Jun-22 16:31N 51°10' E 001°40'714.5
2018-Jun-22 16:01N 51°15' E 001°47'714.6
2018-Jun-22 15:31N 51°22' E 001°53'714.3
2018-Jun-22 15:01N 51°28' E 001°58'714.1
2018-Jun-22 14:30N 51°33' E 002°06'713.6
2018-Jun-22 14:00N 51°38' E 002°13'713.2
2018-Jun-22 13:29N 51°44' E 002°20'46710.1
2018-Jun-20 15:07N 57°35' E 011°10'111.7
2018-Jun-20 15:00N 57°34' E 011°12'611.4
2018-Jun-20 14:30N 57°31' E 011°20'510.6
2018-Jun-20 14:00N 57°27' E 011°27'611.2
2018-Jun-20 13:30N 57°21' E 011°31'10610.4
2018-Jun-20 03:14N 55°38' E 010°48'310.4
2018-Jun-20 03:00N 55°35' E 010°49'510.1
2018-Jun-20 02:29N 55°31' E 010°53'610.6
2018-Jun-20 01:54N 55°25' E 010°59'4 9.9
2018-Jun-20 01:27N 55°22' E 011°02'3 6.5
2018-Jun-20 01:00N 55°19' E 011°02'5 9.8
2018-Jun-20 00:30N 55°14' E 011°06'4 8.6
2018-Jun-20 00:00N 55°10' E 011°02'510.2
2018-Jun-19 23:30N 55°06' E 010°59'5 9.8
2018-Jun-19 23:00N 55°01' E 010°59'4 8.9
2018-Jun-19 22:30N 54°57' E 010°55'5 9.5
2018-Jun-19 22:00N 54°53' E 010°51'4 8.6
2018-Jun-19 21:30N 54°49' E 010°50'4 8.5
2018-Jun-19 21:00N 54°45' E 010°47'4 8.4
2018-Jun-19 20:30N 54°40' E 010°47'510.2
2018-Jun-19 20:00N 54°38' E 010°55'510.4
2018-Jun-19 19:30N 54°36' E 011°03'5 9.9
2018-Jun-19 19:00N 54°36' E 011°11'510.6
2018-Jun-19 18:30N 54°33' E 011°19'510.8
2018-Jun-19 18:00N 54°31' E 011°28'510.8
2018-Jun-19 17:30N 54°29' E 011°37'510.7
2018-Jun-19 17:01N 54°27' E 011°45'510.6
2018-Jun-19 16:30N 54°27' E 011°54'511.0
2018-Jun-19 16:00N 54°27' E 012°04'7 9.1
2018-Jun-19 15:15N 54°31' E 012°14'311.2
2018-Jun-19 15:00N 54°33' E 012°15'5 9.3
2018-Jun-19 14:30N 54°37' E 012°19'3 6.8
2018-Jun-19 14:00N 54°39' E 012°24'51 9.6
2018-Jun-19 08:40N 54°59' E 013°46'212.1
2018-Jun-19 08:28N 55°00' E 013°50'612.2
2018-Jun-19 07:59N 55°02' E 013°59'612.0
2018-Jun-19 07:30N 55°06' E 014°08'611.9
2018-Jun-19 07:00N 55°08' E 014°17'611.8
2018-Jun-19 06:30N 55°11' E 014°27'611.3
2018-Jun-19 06:00N 55°15' E 014°34'611.6
2018-Jun-19 05:30N 55°19' E 014°41'511.0
2018-Jun-19 05:01N 55°20' E 014°50'4 7.0
2018-Jun-19 04:30N 55°19' E 014°56'611.5
2018-Jun-19 04:00N 55°22' E 015°05'612.0
2018-Jun-19 03:30N 55°25' E 015°14'611.8
2018-Jun-19 03:00N 55°27' E 015°24'28911.3
2018-Jun-18 01:25N 59°00' E 021°26'2211.6
2018-Jun-17 23:34N 59°16' E 021°54'111.5
2018-Jun-17 23:30N 59°17' E 021°55'611.7
2018-Jun-17 23:00N 59°20' E 022°04'611.9
2018-Jun-17 22:30N 59°24' E 022°13'612.0
2018-Jun-17 22:00N 59°28' E 022°22'611.8
2018-Jun-17 21:29N 59°31' E 022°32'612.1
2018-Jun-17 21:00N 59°33' E 022°43'612.0
2018-Jun-17 20:30N 59°35' E 022°55'612.1
2018-Jun-17 20:00N 59°36' E 023°06'612.1
2018-Jun-17 19:30N 59°38' E 023°18'612.1
2018-Jun-17 19:00N 59°39' E 023°29'612.2
2018-Jun-17 18:30N 59°41' E 023°41'612.0
2018-Jun-17 18:00N 59°43' E 023°52'612.0
2018-Jun-17 17:30N 59°44' E 024°04'612.0
2018-Jun-17 17:00N 59°46' E 024°15'612.1
2018-Jun-17 16:30N 59°47' E 024°27'612.0
2018-Jun-17 16:00N 59°49' E 024°38'612.0
2018-Jun-17 15:30N 59°50' E 024°50'611.9
2018-Jun-17 15:00N 59°51' E 025°02'612.0
2018-Jun-17 14:30N 59°53' E 025°13'612.0
2018-Jun-17 14:00N 59°53' E 025°25'612.0
2018-Jun-17 13:30N 59°54' E 025°37'612.0
2018-Jun-17 13:00N 59°55' E 025°49'612.2
2018-Jun-17 12:30N 59°57' E 026°00'612.0
2018-Jun-17 12:00N 59°59' E 026°12'611.9
2018-Jun-17 11:30N 60°00' E 026°23'611.6
2018-Jun-17 11:00N 60°02' E 026°35'611.7
2018-Jun-17 10:30N 60°01' E 026°46'611.8
2018-Jun-17 09:58N 59°60' E 026°59'511.1
2018-Jun-17 09:30N 60°01' E 027°09'611.9
2018-Jun-17 09:00N 60°04' E 027°19'611.8
2018-Jun-17 08:30N 60°07' E 027°29'611.8
2018-Jun-17 08:00N 60°10' E 027°39'511.0
2018-Jun-17 07:30N 60°12' E 027°50'612.0
2018-Jun-17 07:00N 60°10' E 028°01'611.8
2018-Jun-17 06:30N 60°09' E 028°13'510.8
2018-Jun-17 06:00N 60°08' E 028°23'611.7
2018-Jun-17 05:30N 60°09' E 028°35'510.6
2018-Jun-17 05:00N 60°12' E 028°44'4 8.0
2018-Jun-17 04:30N 60°15' E 028°48'5 9.5
2018-Jun-17 04:00N 60°19' E 028°43'1 2.3
2018-Jun-17 03:28N 60°20' E 028°42'0 0.1
2018-Jun-17 03:00N 60°20' E 028°42'0 0.0
2018-Jun-17 02:30N 60°20' E 028°42'0 0.0
2018-Jun-17 02:00N 60°20' E 028°42'0 0.0
2018-Jun-17 01:24N 60°20' E 028°42'0 0.0
2018-Jun-17 01:00N 60°20' E 028°42'0 0.0
2018-Jun-17 00:21N 60°20' E 028°42'0 0.0
2018-Jun-17 00:00N 60°20' E 028°42'0 0.0
2018-Jun-16 23:24N 60°20' E 028°42'0 0.0
2018-Jun-16 23:00N 60°20' E 028°42'0 0.0
2018-Jun-16 22:27N 60°20' E 028°42'0 0.0
2018-Jun-16 21:57N 60°20' E 028°42'0 0.0
2018-Jun-16 21:30N 60°20' E 028°42'0 0.0
2018-Jun-16 21:00N 60°20' E 028°42'0 0.0
2018-Jun-16 20:21N 60°20' E 028°42'0 0.0
2018-Jun-16 19:51N 60°20' E 028°42'0 0.0
2018-Jun-16 19:30N 60°20' E 028°42'0 0.0
2018-Jun-16 18:51N 60°20' E 028°42'0 0.0
2018-Jun-16 18:24N 60°20' E 028°42'0 0.0
2018-Jun-16 18:00N 60°20' E 028°42'0 0.0
2018-Jun-16 17:24N 60°20' E 028°42'0 0.0
2018-Jun-16 16:54N 60°20' E 028°42'0 0.0
2018-Jun-16 16:24N 60°20' E 028°42'0 0.0
2018-Jun-16 15:57N 60°20' E 028°42'0 0.0
2018-Jun-16 15:24N 60°20' E 028°42'0 0.0
2018-Jun-16 12:33N 60°20' E 028°42'0 0.0
2018-Jun-16 12:21N 60°20' E 028°42'0 0.0
2018-Jun-16 11:57N 60°20' E 028°42'0 0.0
2018-Jun-16 11:27N 60°20' E 028°42'0 0.0
2018-Jun-16 10:54N 60°20' E 028°42'0 0.0
2018-Jun-16 10:30N 60°20' E 028°42'0 0.0
2018-Jun-16 09:51N 60°20' E 028°42'0 0.0
2018-Jun-16 09:21N 60°20' E 028°42'0 0.0
2018-Jun-16 09:00N 60°20' E 028°42'0 0.0
2018-Jun-16 08:18N 60°20' E 028°42'0 0.0
2018-Jun-16 07:48N 60°20' E 028°42'0 0.0
2018-Jun-16 07:30N 60°20' E 028°42'0 0.0
2018-Jun-16 06:57N 60°20' E 028°42'0 0.0
2018-Jun-16 06:21N 60°20' E 028°42'0 0.0
2018-Jun-16 05:03N 60°20' E 028°42'0 0.1
2018-Jun-16 04:57N 60°20' E 028°42'0 0.0
2018-Jun-16 04:28N 60°20' E 028°42'0 0.0
2018-Jun-15 21:55N 60°20' E 028°42'0 0.1
2018-Jun-15 21:30N 60°20' E 028°42'0 0.5
2018-Jun-15 21:00N 60°20' E 028°41'1 2.6
2018-Jun-15 20:29N 60°19' E 028°43'3 6.9
2018-Jun-15 20:01N 60°16' E 028°47'4 6.8
2018-Jun-15 19:30N 60°13' E 028°46'511.0
2018-Jun-15 19:00N 60°08' E 028°41'611.3
2018-Jun-15 18:30N 60°03' E 028°34'3 5.4
2018-Jun-15 17:52N 60°01' E 028°29'0 0.1
2018-Jun-15 17:30N 60°01' E 028°29'0 0.2
2018-Jun-15 16:59N 60°01' E 028°29'0 0.1
2018-Jun-15 16:29N 60°01' E 028°29'0 0.1
2018-Jun-15 15:55N 60°01' E 028°29'0 0.0
2018-Jun-15 15:29N 60°01' E 028°29'0 0.0
2018-Jun-15 14:59N 60°01' E 028°29'0 0.0
2018-Jun-15 14:28N 60°01' E 028°29'0 0.0
2018-Jun-15 13:59N 60°01' E 028°29'0 0.0
2018-Jun-15 13:28N 60°01' E 028°29'0 0.2
2018-Jun-15 12:58N 60°01' E 028°29'0 0.1
2018-Jun-15 12:30N 60°01' E 028°29'0 0.0
2018-Jun-15 11:59N 60°01' E 028°29'0 0.0
2018-Jun-15 11:29N 60°01' E 028°29'0 0.0
2018-Jun-15 10:59N 60°01' E 028°29'0 0.0
2018-Jun-15 10:29N 60°01' E 028°29'0 0.1
2018-Jun-15 09:59N 60°01' E 028°29'0 0.1
2018-Jun-15 09:28N 60°01' E 028°29'0 0.1
2018-Jun-15 09:00N 60°01' E 028°29'0 0.0
2018-Jun-15 08:30N 60°01' E 028°29'0 0.1
2018-Jun-15 07:59N 60°01' E 028°29'0 0.6
2018-Jun-15 07:30N 60°01' E 028°29'2 3.6
2018-Jun-15 07:00N 60°03' E 028°27'3 5.3
2018-Jun-15 06:30N 60°04' E 028°22'4 8.0
2018-Jun-15 06:00N 60°07' E 028°16'4 8.3
2018-Jun-15 05:30N 60°08' E 028°08'4 8.3
2018-Jun-15 05:00N 60°09' E 028°00'4 8.2
2018-Jun-15 04:30N 60°10' E 027°52'4 7.9
2018-Jun-15 04:00N 60°10' E 027°44'5 8.9
2018-Jun-15 03:30N 60°08' E 027°36'4 9.0
2018-Jun-15 03:00N 60°05' E 027°29'4 9.0
2018-Jun-15 02:30N 60°03' E 027°21'5 8.9
2018-Jun-15 01:59N 60°01' E 027°13'4 9.0
2018-Jun-15 01:30N 59°58' E 027°06'4 8.5
2018-Jun-15 00:59N 59°58' E 026°57'4 9.1
2018-Jun-15 00:30N 59°59' E 026°48'5 9.0
2018-Jun-15 00:00N 59°59' E 026°39'5 9.2
2018-Jun-14 23:30N 59°58' E 026°30'5 9.1
2018-Jun-14 23:00N 59°57' E 026°21'5 8.9
2018-Jun-14 22:30N 59°56' E 026°13'4 8.7
2018-Jun-14 22:00N 59°54' E 026°05'4 8.6
2018-Jun-14 21:30N 59°53' E 025°56'4 8.3
2018-Jun-14 21:00N 59°52' E 025°48'4 8.3
2018-Jun-14 20:30N 59°51' E 025°40'4 8.1
2018-Jun-14 20:00N 59°50' E 025°32'4 7.9
2018-Jun-14 19:30N 59°50' E 025°25'4 8.1
2018-Jun-14 19:00N 59°49' E 025°17'4 8.0
2018-Jun-14 18:30N 59°48' E 025°09'4 8.0
2018-Jun-14 18:00N 59°47' E 025°01'4 7.9
2018-Jun-14 17:30N 59°46' E 024°54'4 7.9
2018-Jun-14 17:00N 59°46' E 024°46'4 7.7
2018-Jun-14 16:30N 59°45' E 024°38'4 7.9
2018-Jun-14 16:00N 59°44' E 024°31'4 7.8
2018-Jun-14 15:30N 59°43' E 024°23'4 7.6
2018-Jun-14 15:00N 59°42' E 024°16'4 7.8
2018-Jun-14 14:30N 59°41' E 024°09'4 7.8
2018-Jun-14 14:00N 59°40' E 024°01'4 7.6
2018-Jun-14 13:30N 59°39' E 023°54'4 7.6
2018-Jun-14 13:00N 59°37' E 023°47'4 7.8
2018-Jun-14 12:30N 59°36' E 023°40'4 8.0
2018-Jun-14 12:00N 59°35' E 023°32'4 7.8
2018-Jun-14 11:30N 59°34' E 023°25'4 7.9
2018-Jun-14 11:00N 59°32' E 023°17'4 7.9
2018-Jun-14 10:30N 59°31' E 023°10'4 8.1
2018-Jun-14 10:01N 59°30' E 023°03'4 8.4
2018-Jun-14 09:30N 59°28' E 022°55'4 8.4
2018-Jun-14 09:00N 59°27' E 022°47'4 8.4
2018-Jun-14 08:30N 59°26' E 022°39'4 8.4
2018-Jun-14 08:00N 59°23' E 022°32'4 8.3
2018-Jun-14 07:30N 59°21' E 022°26'4 8.3
2018-Jun-14 07:00N 59°18' E 022°19'5 8.2
2018-Jun-14 06:22N 59°15' E 022°11'3 8.5
2018-Jun-14 06:00N 59°13' E 022°06'713.1
2018-Jun-14 05:30N 59°09' E 021°56'610.8
2018-Jun-14 04:59N 59°05' E 021°48'5 8.5
2018-Jun-14 04:25N 59°02' E 021°42'3 8.3
2018-Jun-14 04:00N 58°59' E 021°39'12 8.2
2018-Jun-14 02:32N 58°49' E 021°25'0 8.1
2018-Jun-14 02:30N 58°49' E 021°25'  
Track history (hours):
 
Tides and Currents Weather Stations Pressure Air Temp Water Temp Dewpoint Dewpoint Depression Visibility Wind Speed Wind Dir Waves Ship Positions

Mareta

Last reported at 2018-Jun-23 15:25 UTC. Time now 2018-Jun-23 15:29 UTC.
Position N 49°22' W 004°37'.

Length 249 m; draft 14.1 m.

Type: Tanker. MMSI: 229038000.

Date/timePositionNaut miles runAvg speedWind from/ knotsBaromVisibWave heightAir tempDewpointWater temp
2018-Jun-23 15:25N 49°22' W 004°37'2311.3
2018-Jun-23 13:24N 49°33' W 004°07'711.3
2018-Jun-23 12:49N 49°37' W 003°58'311.2
2018-Jun-23 12:30N 49°38' W 003°54'611.2
2018-Jun-23 12:00N 49°41' W 003°46'13 9.9
2018-Jun-23 10:44N 49°48' W 003°29'312.7
2018-Jun-23 10:30N 49°49' W 003°25'612.8
2018-Jun-23 10:00N 49°52' W 003°17'713.0
2018-Jun-23 09:30N 49°55' W 003°08'613.1
2018-Jun-23 09:01N 49°58' W 002°59'612.8
2018-Jun-23 08:31N 50°01' W 002°50'612.8
2018-Jun-23 08:00N 50°03' W 002°40'612.5
2018-Jun-23 07:30N 50°05' W 002°31'612.0
2018-Jun-23 07:01N 50°06' W 002°22'711.4
2018-Jun-23 06:23N 50°08' W 002°11'410.8
2018-Jun-23 06:01N 50°09' W 002°05'510.3
2018-Jun-23 05:30N 50°10' W 001°57'5 9.8
2018-Jun-23 05:01N 50°12' W 001°50'5 9.5
2018-Jun-23 04:31N 50°13' W 001°43'5 9.3
2018-Jun-23 04:00N 50°14' W 001°36'5 9.3
2018-Jun-23 03:31N 50°15' W 001°29'5 9.5
2018-Jun-23 03:01N 50°16' W 001°22'510.0
2018-Jun-23 02:30N 50°18' W 001°14'510.6
2018-Jun-23 02:00N 50°19' W 001°06'611.5
2018-Jun-23 01:30N 50°21' W 000°57'612.5
2018-Jun-23 01:01N 50°22' W 000°48'612.7
2018-Jun-23 00:31N 50°24' W 000°38'713.0
2018-Jun-23 00:00N 50°26' W 000°28'713.2
2018-Jun-22 23:31N 50°27' W 000°18'713.3
2018-Jun-22 23:00N 50°29' W 000°08'713.3
2018-Jun-22 22:30N 50°31' E 000°02'713.3
2018-Jun-22 22:00N 50°33' E 000°12'713.2
2018-Jun-22 21:31N 50°34' E 000°22'612.9
2018-Jun-22 21:01N 50°36' E 000°32'611.1
2018-Jun-22 20:30N 50°38' E 000°40'611.4
2018-Jun-22 20:01N 50°41' E 000°47'612.1
2018-Jun-22 19:30N 50°45' E 000°55'611.9
2018-Jun-22 19:00N 50°48' E 001°03'611.7
2018-Jun-22 18:31N 50°51' E 001°10'611.9
2018-Jun-22 18:00N 50°55' E 001°18'612.4
2018-Jun-22 17:30N 50°60' E 001°24'713.7
2018-Jun-22 17:01N 51°05' E 001°32'714.3
2018-Jun-22 16:31N 51°10' E 001°40'714.5
2018-Jun-22 16:01N 51°15' E 001°47'714.6
2018-Jun-22 15:31N 51°22' E 001°53'714.3
2018-Jun-22 15:01N 51°28' E 001°58'714.1
2018-Jun-22 14:30N 51°33' E 002°06'713.6
2018-Jun-22 14:00N 51°38' E 002°13'713.2
2018-Jun-22 13:29N 51°44' E 002°20'46710.1
2018-Jun-20 15:07N 57°35' E 011°10'111.7
2018-Jun-20 15:00N 57°34' E 011°12'611.4
2018-Jun-20 14:30N 57°31' E 011°20'510.6
2018-Jun-20 14:00N 57°27' E 011°27'611.2
2018-Jun-20 13:30N 57°21' E 011°31'10610.4
2018-Jun-20 03:14N 55°38' E 010°48'310.4
2018-Jun-20 03:00N 55°35' E 010°49'510.1
2018-Jun-20 02:29N 55°31' E 010°53'610.6
2018-Jun-20 01:54N 55°25' E 010°59'4 9.9
2018-Jun-20 01:27N 55°22' E 011°02'3 6.5
2018-Jun-20 01:00N 55°19' E 011°02'5 9.8
2018-Jun-20 00:30N 55°14' E 011°06'4 8.6
2018-Jun-20 00:00N 55°10' E 011°02'510.2
2018-Jun-19 23:30N 55°06' E 010°59'5 9.8
2018-Jun-19 23:00N 55°01' E 010°59'4 8.9
2018-Jun-19 22:30N 54°57' E 010°55'5 9.5
2018-Jun-19 22:00N 54°53' E 010°51'4 8.6
2018-Jun-19 21:30N 54°49' E 010°50'4 8.5
2018-Jun-19 21:00N 54°45' E 010°47'4 8.4
2018-Jun-19 20:30N 54°40' E 010°47'510.2
2018-Jun-19 20:00N 54°38' E 010°55'510.4
2018-Jun-19 19:30N 54°36' E 011°03'5 9.9
2018-Jun-19 19:00N 54°36' E 011°11'510.6
2018-Jun-19 18:30N 54°33' E 011°19'510.8
2018-Jun-19 18:00N 54°31' E 011°28'510.8
2018-Jun-19 17:30N 54°29' E 011°37'510.7
2018-Jun-19 17:01N 54°27' E 011°45'510.6
2018-Jun-19 16:30N 54°27' E 011°54'511.0
2018-Jun-19 16:00N 54°27' E 012°04'7 9.1
2018-Jun-19 15:15N 54°31' E 012°14'311.2
2018-Jun-19 15:00N 54°33' E 012°15'5 9.3
2018-Jun-19 14:30N 54°37' E 012°19'3 6.8
2018-Jun-19 14:00N 54°39' E 012°24'51 9.6
2018-Jun-19 08:40N 54°59' E 013°46'212.1
2018-Jun-19 08:28N 55°00' E 013°50'612.2
2018-Jun-19 07:59N 55°02' E 013°59'612.0
2018-Jun-19 07:30N 55°06' E 014°08'611.9
2018-Jun-19 07:00N 55°08' E 014°17'611.8
2018-Jun-19 06:30N 55°11' E 014°27'611.3
2018-Jun-19 06:00N 55°15' E 014°34'611.6
2018-Jun-19 05:30N 55°19' E 014°41'511.0
2018-Jun-19 05:01N 55°20' E 014°50'4 7.0
2018-Jun-19 04:30N 55°19' E 014°56'611.5
2018-Jun-19 04:00N 55°22' E 015°05'612.0
2018-Jun-19 03:30N 55°25' E 015°14'611.8
2018-Jun-19 03:00N 55°27' E 015°24'28911.3
2018-Jun-18 01:25N 59°00' E 021°26'2211.6
2018-Jun-17 23:34N 59°16' E 021°54'111.5
2018-Jun-17 23:30N 59°17' E 021°55'611.7
2018-Jun-17 23:00N 59°20' E 022°04'611.9
2018-Jun-17 22:30N 59°24' E 022°13'612.0
2018-Jun-17 22:00N 59°28' E 022°22'611.8
2018-Jun-17 21:29N 59°31' E 022°32'612.1
2018-Jun-17 21:00N 59°33' E 022°43'612.0
2018-Jun-17 20:30N 59°35' E 022°55'612.1
2018-Jun-17 20:00N 59°36' E 023°06'612.1
2018-Jun-17 19:30N 59°38' E 023°18'612.1
2018-Jun-17 19:00N 59°39' E 023°29'612.2
2018-Jun-17 18:30N 59°41' E 023°41'612.0
2018-Jun-17 18:00N 59°43' E 023°52'612.0
2018-Jun-17 17:30N 59°44' E 024°04'612.0
2018-Jun-17 17:00N 59°46' E 024°15'612.1
2018-Jun-17 16:30N 59°47' E 024°27'612.0
2018-Jun-17 16:00N 59°49' E 024°38'612.0
2018-Jun-17 15:30N 59°50' E 024°50'611.9
2018-Jun-17 15:00N 59°51' E 025°02'612.0
2018-Jun-17 14:30N 59°53' E 025°13'612.0
2018-Jun-17 14:00N 59°53' E 025°25'612.0
2018-Jun-17 13:30N 59°54' E 025°37'612.0
2018-Jun-17 13:00N 59°55' E 025°49'612.2
2018-Jun-17 12:30N 59°57' E 026°00'612.0
2018-Jun-17 12:00N 59°59' E 026°12'611.9
2018-Jun-17 11:30N 60°00' E 026°23'611.6
2018-Jun-17 11:00N 60°02' E 026°35'611.7
2018-Jun-17 10:30N 60°01' E 026°46'611.8
2018-Jun-17 09:58N 59°60' E 026°59'511.1
2018-Jun-17 09:30N 60°01' E 027°09'611.9
2018-Jun-17 09:00N 60°04' E 027°19'611.8
2018-Jun-17 08:30N 60°07' E 027°29'611.8
2018-Jun-17 08:00N 60°10' E 027°39'511.0
2018-Jun-17 07:30N 60°12' E 027°50'612.0
2018-Jun-17 07:00N 60°10' E 028°01'611.8
2018-Jun-17 06:30N 60°09' E 028°13'510.8
2018-Jun-17 06:00N 60°08' E 028°23'611.7
2018-Jun-17 05:30N 60°09' E 028°35'510.6
2018-Jun-17 05:00N 60°12' E 028°44'4 8.0
2018-Jun-17 04:30N 60°15' E 028°48'5 9.5
2018-Jun-17 04:00N 60°19' E 028°43'1 2.3
2018-Jun-17 03:28N 60°20' E 028°42'0 0.1
2018-Jun-17 03:00N 60°20' E 028°42'0 0.0
2018-Jun-17 02:30N 60°20' E 028°42'0 0.0
2018-Jun-17 02:00N 60°20' E 028°42'0 0.0
2018-Jun-17 01:24N 60°20' E 028°42'0 0.0
2018-Jun-17 01:00N 60°20' E 028°42'0 0.0
2018-Jun-17 00:21N 60°20' E 028°42'0 0.0
2018-Jun-17 00:00N 60°20' E 028°42'0 0.0
2018-Jun-16 23:24N 60°20' E 028°42'0 0.0
2018-Jun-16 23:00N 60°20' E 028°42'0 0.0
2018-Jun-16 22:27N 60°20' E 028°42'0 0.0
2018-Jun-16 21:57N 60°20' E 028°42'0 0.0
2018-Jun-16 21:30N 60°20' E 028°42'0 0.0
2018-Jun-16 21:00N 60°20' E 028°42'0 0.0
2018-Jun-16 20:21N 60°20' E 028°42'0 0.0
2018-Jun-16 19:51N 60°20' E 028°42'0 0.0
2018-Jun-16 19:30N 60°20' E 028°42'0 0.0
2018-Jun-16 18:51N 60°20' E 028°42'0 0.0
2018-Jun-16 18:24N 60°20' E 028°42'0 0.0
2018-Jun-16 18:00N 60°20' E 028°42'0 0.0
2018-Jun-16 17:24N 60°20' E 028°42'0 0.0
2018-Jun-16 16:54N 60°20' E 028°42'0 0.0
2018-Jun-16 16:24N 60°20' E 028°42'0 0.0
2018-Jun-16 15:57N 60°20' E 028°42'0 0.0
2018-Jun-16 15:24N 60°20' E 028°42'0 0.0
2018-Jun-16 12:33N 60°20' E 028°42'0 0.0
2018-Jun-16 12:21N 60°20' E 028°42'0 0.0
2018-Jun-16 11:57N 60°20' E 028°42'0 0.0
2018-Jun-16 11:27N 60°20' E 028°42'0 0.0
2018-Jun-16 10:54N 60°20' E 028°42'0 0.0
2018-Jun-16 10:30N 60°20' E 028°42'0 0.0
2018-Jun-16 09:51N 60°20' E 028°42'0 0.0
2018-Jun-16 09:21N 60°20' E 028°42'0 0.0
2018-Jun-16 09:00N 60°20' E 028°42'0 0.0
2018-Jun-16 08:18N 60°20' E 028°42'0 0.0
2018-Jun-16 07:48N 60°20' E 028°42'0 0.0
2018-Jun-16 07:30N 60°20' E 028°42'0 0.0
2018-Jun-16 06:57N 60°20' E 028°42'0 0.0
2018-Jun-16 06:21N 60°20' E 028°42'0 0.0
2018-Jun-16 05:03N 60°20' E 028°42'0 0.1
2018-Jun-16 04:57N 60°20' E 028°42'0 0.0
2018-Jun-16 04:28N 60°20' E 028°42'0 0.0
2018-Jun-15 21:55N 60°20' E 028°42'0 0.1
2018-Jun-15 21:30N 60°20' E 028°42'0 0.5
2018-Jun-15 21:00N 60°20' E 028°41'1 2.6
2018-Jun-15 20:29N 60°19' E 028°43'3 6.9
2018-Jun-15 20:01N 60°16' E 028°47'4 6.8
2018-Jun-15 19:30N 60°13' E 028°46'511.0
2018-Jun-15 19:00N 60°08' E 028°41'611.3
2018-Jun-15 18:30N 60°03' E 028°34'3 5.4
2018-Jun-15 17:52N 60°01' E 028°29'0 0.1
2018-Jun-15 17:30N 60°01' E 028°29'0 0.2
2018-Jun-15 16:59N 60°01' E 028°29'0 0.1
2018-Jun-15 16:29N 60°01' E 028°29'0 0.1
2018-Jun-15 15:55N 60°01' E 028°29'0 0.0
2018-Jun-15 15:29N 60°01' E 028°29'0 0.0
2018-Jun-15 14:59N 60°01' E 028°29'0 0.0
2018-Jun-15 14:28N 60°01' E 028°29'0 0.0
2018-Jun-15 13:59N 60°01' E 028°29'0 0.0
2018-Jun-15 13:28N 60°01' E 028°29'0 0.2
2018-Jun-15 12:58N 60°01' E 028°29'0 0.1
2018-Jun-15 12:30N 60°01' E 028°29'0 0.0
2018-Jun-15 11:59N 60°01' E 028°29'0 0.0
2018-Jun-15 11:29N 60°01' E 028°29'0 0.0
2018-Jun-15 10:59N 60°01' E 028°29'0 0.0
2018-Jun-15 10:29N 60°01' E 028°29'0 0.1
2018-Jun-15 09:59N 60°01' E 028°29'0 0.1
2018-Jun-15 09:28N 60°01' E 028°29'0 0.1
2018-Jun-15 09:00N 60°01' E 028°29'0 0.0
2018-Jun-15 08:30N 60°01' E 028°29'0 0.1
2018-Jun-15 07:59N 60°01' E 028°29'0 0.6
2018-Jun-15 07:30N 60°01' E 028°29'2 3.6
2018-Jun-15 07:00N 60°03' E 028°27'3 5.3
2018-Jun-15 06:30N 60°04' E 028°22'4 8.0
2018-Jun-15 06:00N 60°07' E 028°16'4 8.3
2018-Jun-15 05:30N 60°08' E 028°08'4 8.3
2018-Jun-15 05:00N 60°09' E 028°00'4 8.2
2018-Jun-15 04:30N 60°10' E 027°52'4 7.9
2018-Jun-15 04:00N 60°10' E 027°44'5 8.9
2018-Jun-15 03:30N 60°08' E 027°36'4 9.0
2018-Jun-15 03:00N 60°05' E 027°29'4 9.0
2018-Jun-15 02:30N 60°03' E 027°21'5 8.9
2018-Jun-15 01:59N 60°01' E 027°13'4 9.0
2018-Jun-15 01:30N 59°58' E 027°06'4 8.5
2018-Jun-15 00:59N 59°58' E 026°57'4 9.1
2018-Jun-15 00:30N 59°59' E 026°48'5 9.0
2018-Jun-15 00:00N 59°59' E 026°39'5 9.2
2018-Jun-14 23:30N 59°58' E 026°30'5 9.1
2018-Jun-14 23:00N 59°57' E 026°21'5 8.9
2018-Jun-14 22:30N 59°56' E 026°13'4 8.7
2018-Jun-14 22:00N 59°54' E 026°05'4 8.6
2018-Jun-14 21:30N 59°53' E 025°56'4 8.3
2018-Jun-14 21:00N 59°52' E 025°48'4 8.3
2018-Jun-14 20:30N 59°51' E 025°40'4 8.1
2018-Jun-14 20:00N 59°50' E 025°32'4 7.9
2018-Jun-14 19:30N 59°50' E 025°25'4 8.1
2018-Jun-14 19:00N 59°49' E 025°17'4 8.0
2018-Jun-14 18:30N 59°48' E 025°09'4 8.0
2018-Jun-14 18:00N 59°47' E 025°01'4 7.9
2018-Jun-14 17:30N 59°46' E 024°54'4 7.9
2018-Jun-14 17:00N 59°46' E 024°46'4 7.7
2018-Jun-14 16:30N 59°45' E 024°38'4 7.9
2018-Jun-14 16:00N 59°44' E 024°31'4 7.8
2018-Jun-14 15:30N 59°43' E 024°23'4 7.6
2018-Jun-14 15:00N 59°42' E 024°16'4 7.8
2018-Jun-14 14:30N 59°41' E 024°09'4 7.8
2018-Jun-14 14:00N 59°40' E 024°01'4 7.6
2018-Jun-14 13:30N 59°39' E 023°54'4 7.6
2018-Jun-14 13:00N 59°37' E 023°47'4 7.8
2018-Jun-14 12:30N 59°36' E 023°40'4 8.0
2018-Jun-14 12:00N 59°35' E 023°32'4 7.8
2018-Jun-14 11:30N 59°34' E 023°25'4 7.9
2018-Jun-14 11:00N 59°32' E 023°17'4 7.9
2018-Jun-14 10:30N 59°31' E 023°10'4 8.1
2018-Jun-14 10:01N 59°30' E 023°03'4 8.4
2018-Jun-14 09:30N 59°28' E 022°55'4 8.4
2018-Jun-14 09:00N 59°27' E 022°47'4 8.4
2018-Jun-14 08:30N 59°26' E 022°39'4 8.4
2018-Jun-14 08:00N 59°23' E 022°32'4 8.3
2018-Jun-14 07:30N 59°21' E 022°26'4 8.3
2018-Jun-14 07:00N 59°18' E 022°19'5 8.2
2018-Jun-14 06:22N 59°15' E 022°11'3 8.5
2018-Jun-14 06:00N 59°13' E 022°06'713.1
2018-Jun-14 05:30N 59°09' E 021°56'610.8
2018-Jun-14 04:59N 59°05' E 021°48'5 8.5
2018-Jun-14 04:25N 59°02' E 021°42'3 8.3
2018-Jun-14 04:00N 58°59' E 021°39'12 8.2
2018-Jun-14 02:32N 58°49' E 021°25'0 8.1
2018-Jun-14 02:30N 58°49' E 021°25'  

Dump ship's entire track history